Terminal Aerodrome Forecast
Issued by NWS

Home | Current Version | Previous Version | Text Only | Print | Product List | Glossary On
Versions: 1 2 3 4 5 6 7 8 9 10 11 12 13 14 15 16 17 18 19
000
FTUS41 KGYX 020529
TAFRKD
TAF
KRKD 020529Z 0206/0306 00000KT P6SM BKN100
     FM021400 20008KT P6SM BKN050 OVC100
     FM022000 18006KT 2SM BR BKN010 OVC050
     FM030400 22010G17KT P6SM OVC050
      AMD LTD TO CLD VIS AND WIND=

USA.gov is the U.S. government's official web portal to all federal, state and local government web resources and services.